sensor_id;sensor_type;location;lat;lon;timestamp;noise_LAeq;noise_LA_min;noise_LA_max;noise_LA01;noise_LA95
74496;Laerm;62979;55.720;37.606;2022-09-13T00:00:59;41.36;38.31;47.15;;
74496;Laerm;62979;55.720;37.606;2022-09-13T00:03:28;41.52;37.87;49.41;;
74496;Laerm;62979;55.720;37.606;2022-09-13T00:05:55;42.25;37.82;50.77;;
74496;Laerm;62979;55.720;37.606;2022-09-13T00:08:22;46.70;38.79;57.77;;
74496;Laerm;62979;55.720;37.606;2022-09-13T00:10:50;42.10;37.84;48.22;;
74496;Laerm;62979;55.720;37.606;2022-09-13T00:13:17;44.72;38.19;56.87;;
74496;Laerm;62979;55.720;37.606;2022-09-13T00:15:45;42.04;38.30;47.81;;
74496;Laerm;62979;55.720;37.606;2022-09-13T00:18:13;49.83;38.11;64.16;;
74496;Laerm;62979;55.720;37.606;2022-09-13T00:20:41;42.08;38.20;45.98;;
74496;Laerm;62979;55.720;37.606;2022-09-13T00:23:09;42.32;38.12;46.89;;
74496;Laerm;62979;55.720;37.606;2022-09-13T00:25:37;50.74;38.53;62.02;;
74496;Laerm;62979;55.720;37.606;2022-09-13T00:28:04;41.94;37.80;45.63;;
74496;Laerm;62979;55.720;37.606;2022-09-13T00:30:31;41.63;37.91;45.22;;
74496;Laerm;62979;55.720;37.606;2022-09-13T00:32:59;42.33;38.46;52.53;;
74496;Laerm;62979;55.720;37.606;2022-09-13T00:35:29;41.81;38.05;45.83;;
74496;Laerm;62979;55.720;37.606;2022-09-13T00:37:59;41.88;37.43;48.57;;
74496;Laerm;62979;55.720;37.606;2022-09-13T00:40:28;45.42;38.38;56.44;;
74496;Laerm;62979;55.720;37.606;2022-09-13T00:42:55;42.92;38.12;48.62;;
74496;Laerm;62979;55.720;37.606;2022-09-13T00:45:22;43.59;39.42;49.13;;
74496;Laerm;62979;55.720;37.606;2022-09-13T00:47:54;42.30;37.92;54.14;;
74496;Laerm;62979;55.720;37.606;2022-09-13T00:50:28;46.64;38.92;60.16;;
74496;Laerm;62979;55.720;37.606;2022-09-13T00:53:04;41.87;38.29;46.41;;
74496;Laerm;62979;55.720;37.606;2022-09-13T00:55:38;46.42;38.36;58.48;;
74496;Laerm;62979;55.720;37.606;2022-09-13T00:58:15;42.73;38.51;50.90;;
74496;Laerm;62979;55.720;37.606;2022-09-13T01:00:45;42.40;38.33;53.76;;
74496;Laerm;62979;55.720;37.606;2022-09-13T01:03:16;42.08;38.11;47.77;;
74496;Laerm;62979;55.720;37.606;2022-09-13T01:05:50;42.19;38.79;45.55;;
74496;Laerm;62979;55.720;37.606;2022-09-13T01:08:22;42.24;38.31;46.65;;
74496;Laerm;62979;55.720;37.606;2022-09-13T01:10:50;41.62;37.32;46.40;;
74496;Laerm;62979;55.720;37.606;2022-09-13T01:13:20;42.64;37.87;50.15;;
74496;Laerm;62979;55.720;37.606;2022-09-13T01:15:49;41.69;37.93;45.66;;
74496;Laerm;62979;55.720;37.606;2022-09-13T01:18:17;42.00;38.17;46.42;;
74496;Laerm;62979;55.720;37.606;2022-09-13T01:21:06;45.66;38.57;55.77;;
74496;Laerm;62979;55.720;37.606;2022-09-13T01:24:11;42.94;38.01;49.81;;
74496;Laerm;62979;55.720;37.606;2022-09-13T01:27:20;42.94;38.59;51.93;;
74496;Laerm;62979;55.720;37.606;2022-09-13T01:30:15;43.27;39.52;48.05;;
74496;Laerm;62979;55.720;37.606;2022-09-13T01:33:03;44.05;39.05;56.11;;
74496;Laerm;62979;55.720;37.606;2022-09-13T01:35:46;43.55;37.29;50.45;;
74496;Laerm;62979;55.720;37.606;2022-09-13T01:38:36;44.47;38.46;58.03;;
74496;Laerm;62979;55.720;37.606;2022-09-13T01:41:20;43.33;38.74;50.66;;
74496;Laerm;62979;55.720;37.606;2022-09-13T01:44:05;42.19;38.76;45.72;;
74496;Laerm;62979;55.720;37.606;2022-09-13T01:46:47;42.75;39.24;47.98;;
74496;Laerm;62979;55.720;37.606;2022-09-13T01:49:23;43.68;38.63;64.72;;
74496;Laerm;62979;55.720;37.606;2022-09-13T01:52:00;46.04;38.79;60.52;;
74496;Laerm;62979;55.720;37.606;2022-09-13T01:54:37;51.02;39.94;63.70;;
74496;Laerm;62979;55.720;37.606;2022-09-13T01:57:16;45.39;38.79;57.18;;
74496;Laerm;62979;55.720;37.606;2022-09-13T01:59:51;42.47;38.80;46.36;;
74496;Laerm;62979;55.720;37.606;2022-09-13T02:02:27;43.28;39.10;46.62;;
74496;Laerm;62979;55.720;37.606;2022-09-13T02:05:03;42.16;38.64;45.60;;
74496;Laerm;62979;55.720;37.606;2022-09-13T02:07:37;42.89;39.58;46.57;;
74496;Laerm;62979;55.720;37.606;2022-09-13T02:10:13;43.68;39.49;53.76;;
74496;Laerm;62979;55.720;37.606;2022-09-13T02:12:46;44.84;38.56;54.75;;
74496;Laerm;62979;55.720;37.606;2022-09-13T02:15:19;52.94;39.67;69.91;;
74496;Laerm;62979;55.720;37.606;2022-09-13T02:17:57;48.91;38.61;63.31;;
74496;Laerm;62979;55.720;37.606;2022-09-13T02:20:29;49.82;38.19;64.02;;
74496;Laerm;62979;55.720;37.606;2022-09-13T02:23:05;43.00;38.98;47.65;;
74496;Laerm;62979;55.720;37.606;2022-09-13T02:25:37;42.95;38.83;47.80;;
74496;Laerm;62979;55.720;37.606;2022-09-13T02:28:10;44.70;39.69;53.64;;
74496;Laerm;62979;55.720;37.606;2022-09-13T02:30:42;43.54;39.87;50.76;;
74496;Laerm;62979;55.720;37.606;2022-09-13T02:33:18;43.21;39.49;47.81;;
74496;Laerm;62979;55.720;37.606;2022-09-13T02:35:54;43.19;39.78;48.41;;
74496;Laerm;62979;55.720;37.606;2022-09-13T02:38:26;46.03;39.77;58.77;;
74496;Laerm;62979;55.720;37.606;2022-09-13T02:40:59;44.07;40.02;51.53;;
74496;Laerm;62979;55.720;37.606;2022-09-13T02:43:36;45.04;38.89;56.47;;
74496;Laerm;62979;55.720;37.606;2022-09-13T02:46:20;43.69;39.34;48.40;;
74496;Laerm;62979;55.720;37.606;2022-09-13T02:48:59;45.73;40.25;56.11;;
74496;Laerm;62979;55.720;37.606;2022-09-13T02:51:40;44.60;40.23;55.75;;
74496;Laerm;62979;55.720;37.606;2022-09-13T02:54:24;46.43;39.65;58.78;;
74496;Laerm;62979;55.720;37.606;2022-09-13T02:56:58;48.28;40.80;60.10;;
74496;Laerm;62979;55.720;37.606;2022-09-13T02:59:27;48.29;41.29;68.07;;
74496;Laerm;62979;55.720;37.606;2022-09-13T03:02:00;50.88;42.36;60.04;;
74496;Laerm;62979;55.720;37.606;2022-09-13T03:04:32;46.21;40.35;56.39;;
74496;Laerm;62979;55.720;37.606;2022-09-13T03:06:59;48.01;41.94;56.47;;
74496;Laerm;62979;55.720;37.606;2022-09-13T03:09:29;48.85;42.02;60.48;;
74496;Laerm;62979;55.720;37.606;2022-09-13T03:12:18;51.03;42.39;67.58;;
74496;Laerm;62979;55.720;37.606;2022-09-13T03:14:58;51.56;42.87;61.13;;
74496;Laerm;62979;55.720;37.606;2022-09-13T03:17:48;49.26;42.06;62.01;;
74496;Laerm;62979;55.720;37.606;2022-09-13T03:20:33;58.92;42.73;76.64;;
74496;Laerm;62979;55.720;37.606;2022-09-13T03:23:43;50.84;41.51;65.28;;
74496;Laerm;62979;55.720;37.606;2022-09-13T03:26:31;51.35;41.93;63.79;;
74496;Laerm;62979;55.720;37.606;2022-09-13T03:29:20;56.52;41.96;72.60;;
74496;Laerm;62979;55.720;37.606;2022-09-13T03:32:01;56.02;43.04;67.19;;
74496;Laerm;62979;55.720;37.606;2022-09-13T03:34:39;48.09;42.01;70.67;;
74496;Laerm;62979;55.720;37.606;2022-09-13T03:37:21;50.83;42.24;71.79;;
74496;Laerm;62979;55.720;37.606;2022-09-13T03:39:56;49.86;41.48;61.34;;
74496;Laerm;62979;55.720;37.606;2022-09-13T03:42:33;53.43;44.17;66.01;;
74496;Laerm;62979;55.720;37.606;2022-09-13T03:45:07;50.69;44.23;61.79;;
74496;Laerm;62979;55.720;37.606;2022-09-13T03:47:37;46.54;41.68;49.62;;
74496;Laerm;62979;55.720;37.606;2022-09-13T03:50:09;51.48;44.16;60.75;;
74496;Laerm;62979;55.720;37.606;2022-09-13T03:52:43;52.89;44.01;61.72;;
74496;Laerm;62979;55.720;37.606;2022-09-13T03:55:11;51.21;43.47;60.86;;
74496;Laerm;62979;55.720;37.606;2022-09-13T03:57:38;50.36;44.31;57.01;;
74496;Laerm;62979;55.720;37.606;2022-09-13T04:00:06;53.61;44.33;61.95;;
74496;Laerm;62979;55.720;37.606;2022-09-13T04:02:34;52.01;44.20;59.75;;
74496;Laerm;62979;55.720;37.606;2022-09-13T04:05:01;51.71;44.13;65.83;;
74496;Laerm;62979;55.720;37.606;2022-09-13T04:07:28;54.70;44.71;64.02;;
74496;Laerm;62979;55.720;37.606;2022-09-13T04:09:57;53.88;48.24;68.49;;
74496;Laerm;62979;55.720;37.606;2022-09-13T04:12:24;55.90;44.20;78.20;;
74496;Laerm;62979;55.720;37.606;2022-09-13T04:14:51;60.23;43.49;85.09;;
74496;Laerm;62979;55.720;37.606;2022-09-13T04:17:18;52.53;43.04;62.12;;
74496;Laerm;62979;55.720;37.606;2022-09-13T04:19:46;54.13;44.74;62.05;;
74496;Laerm;62979;55.720;37.606;2022-09-13T04:22:13;54.61;43.90;63.97;;
74496;Laerm;62979;55.720;37.606;2022-09-13T04:24:40;52.96;44.66;63.37;;
74496;Laerm;62979;55.720;37.606;2022-09-13T04:27:10;53.67;45.25;61.42;;
74496;Laerm;62979;55.720;37.606;2022-09-13T04:29:37;53.46;44.75;62.44;;
74496;Laerm;62979;55.720;37.606;2022-09-13T04:32:05;53.59;45.45;63.23;;
74496;Laerm;62979;55.720;37.606;2022-09-13T04:34:32;52.04;45.12;59.70;;
74496;Laerm;62979;55.720;37.606;2022-09-13T04:36:59;52.16;45.23;60.20;;
74496;Laerm;62979;55.720;37.606;2022-09-13T04:39:26;55.75;46.25;67.40;;
74496;Laerm;62979;55.720;37.606;2022-09-13T04:41:53;53.86;46.83;64.77;;
74496;Laerm;62979;55.720;37.606;2022-09-13T04:44:22;54.56;47.21;64.13;;
74496;Laerm;62979;55.720;37.606;2022-09-13T04:46:50;53.66;47.76;60.27;;
74496;Laerm;62979;55.720;37.606;2022-09-13T04:49:17;59.65;48.06;77.11;;
74496;Laerm;62979;55.720;37.606;2022-09-13T04:51:47;55.78;47.14;66.58;;
74496;Laerm;62979;55.720;37.606;2022-09-13T04:54:14;55.61;47.89;65.75;;
74496;Laerm;62979;55.720;37.606;2022-09-13T04:56:41;55.81;46.01;63.77;;
74496;Laerm;62979;55.720;37.606;2022-09-13T04:59:10;54.82;45.93;61.75;;
74496;Laerm;62979;55.720;37.606;2022-09-13T05:01:40;57.28;48.49;64.60;;
74496;Laerm;62979;55.720;37.606;2022-09-13T05:04:08;57.09;48.22;63.68;;
74496;Laerm;62979;55.720;37.606;2022-09-13T05:06:37;56.13;47.02;67.56;;
74496;Laerm;62979;55.720;37.606;2022-09-13T05:09:05;59.56;50.23;72.23;;
74496;Laerm;62979;55.720;37.606;2022-09-13T05:11:32;56.82;49.62;74.92;;
74496;Laerm;62979;55.720;37.606;2022-09-13T05:14:00;58.46;49.04;68.23;;
74496;Laerm;62979;55.720;37.606;2022-09-13T05:16:30;58.63;51.39;68.38;;
74496;Laerm;62979;55.720;37.606;2022-09-13T05:18:59;59.02;52.92;73.57;;
74496;Laerm;62979;55.720;37.606;2022-09-13T05:21:27;61.01;52.58;71.42;;
74496;Laerm;62979;55.720;37.606;2022-09-13T05:23:55;60.85;51.80;73.65;;
74496;Laerm;62979;55.720;37.606;2022-09-13T05:26:27;61.42;55.51;76.83;;
74496;Laerm;62979;55.720;37.606;2022-09-13T05:28:55;57.73;51.42;64.80;;
74496;Laerm;62979;55.720;37.606;2022-09-13T05:31:25;60.10;49.64;66.68;;
74496;Laerm;62979;55.720;37.606;2022-09-13T05:33:56;57.72;51.01;69.49;;
74496;Laerm;62979;55.720;37.606;2022-09-13T05:36:25;57.46;51.03;76.93;;
74496;Laerm;62979;55.720;37.606;2022-09-13T05:38:52;57.13;50.75;69.46;;
74496;Laerm;62979;55.720;37.606;2022-09-13T05:41:20;57.32;51.88;64.36;;
74496;Laerm;62979;55.720;37.606;2022-09-13T05:43:47;58.68;49.31;73.40;;
74496;Laerm;62979;55.720;37.606;2022-09-13T05:46:17;61.89;52.00;93.61;;
74496;Laerm;62979;55.720;37.606;2022-09-13T05:48:46;58.76;52.04;68.56;;
74496;Laerm;62979;55.720;37.606;2022-09-13T05:51:16;60.03;50.37;74.69;;
74496;Laerm;62979;55.720;37.606;2022-09-13T05:53:46;60.74;49.49;82.33;;
74496;Laerm;62979;55.720;37.606;2022-09-13T05:56:16;59.76;52.07;72.32;;
74496;Laerm;62979;55.720;37.606;2022-09-13T05:58:46;56.34;48.16;63.62;;
74496;Laerm;62979;55.720;37.606;2022-09-13T06:01:15;56.38;50.19;63.47;;
74496;Laerm;62979;55.720;37.606;2022-09-13T06:03:42;66.98;51.20;73.31;;
74496;Laerm;62979;55.720;37.606;2022-09-13T06:06:10;66.87;62.46;72.39;;
74496;Laerm;62979;55.720;37.606;2022-09-13T06:08:37;64.71;55.55;71.38;;
74496;Laerm;62979;55.720;37.606;2022-09-13T06:11:07;66.25;61.86;69.50;;
74496;Laerm;62979;55.720;37.606;2022-09-13T06:13:35;63.43;53.38;71.49;;
74496;Laerm;62979;55.720;37.606;2022-09-13T06:16:06;65.09;60.94;81.40;;
74496;Laerm;62979;55.720;37.606;2022-09-13T06:18:34;63.85;60.13;78.43;;
74496;Laerm;62979;55.720;37.606;2022-09-13T06:21:05;62.55;55.77;69.67;;
74496;Laerm;62979;55.720;37.606;2022-09-13T06:23:33;60.69;54.26;72.58;;
74496;Laerm;62979;55.720;37.606;2022-09-13T06:26:03;59.40;50.22;81.46;;
74496;Laerm;62979;55.720;37.606;2022-09-13T06:28:31;57.62;50.07;64.90;;
74496;Laerm;62979;55.720;37.606;2022-09-13T06:31:01;58.15;51.03;65.57;;
74496;Laerm;62979;55.720;37.606;2022-09-13T06:33:28;64.98;54.40;70.23;;
74496;Laerm;62979;55.720;37.606;2022-09-13T06:35:59;67.01;60.60;71.35;;
74496;Laerm;62979;55.720;37.606;2022-09-13T06:38:27;60.34;50.67;69.93;;
74496;Laerm;62979;55.720;37.606;2022-09-13T06:41:02;57.22;50.01;68.04;;
74496;Laerm;62979;55.720;37.606;2022-09-13T06:43:31;60.68;52.79;71.33;;
74496;Laerm;62979;55.720;37.606;2022-09-13T06:46:00;57.25;51.02;64.46;;
74496;Laerm;62979;55.720;37.606;2022-09-13T06:48:30;65.31;50.80;70.92;;
74496;Laerm;62979;55.720;37.606;2022-09-13T06:51:00;66.82;61.96;79.69;;
74496;Laerm;62979;55.720;37.606;2022-09-13T06:53:28;66.56;61.97;71.66;;
74496;Laerm;62979;55.720;37.606;2022-09-13T06:56:04;66.77;61.75;71.38;;
74496;Laerm;62979;55.720;37.606;2022-09-13T06:58:34;66.25;62.37;70.92;;
74496;Laerm;62979;55.720;37.606;2022-09-13T07:01:08;66.12;62.21;70.21;;
74496;Laerm;62979;55.720;37.606;2022-09-13T07:03:38;66.38;61.77;70.48;;
74496;Laerm;62979;55.720;37.606;2022-09-13T07:06:08;66.70;61.84;71.34;;
74496;Laerm;62979;55.720;37.606;2022-09-13T07:08:35;67.11;62.05;71.76;;
74496;Laerm;62979;55.720;37.606;2022-09-13T07:11:03;67.07;57.64;74.07;;
74496;Laerm;62979;55.720;37.606;2022-09-13T07:13:30;65.05;56.75;76.26;;
74496;Laerm;62979;55.720;37.606;2022-09-13T07:16:01;66.87;64.03;71.19;;
74496;Laerm;62979;55.720;37.606;2022-09-13T07:18:28;66.84;64.21;72.05;;
74496;Laerm;62979;55.720;37.606;2022-09-13T07:20:59;63.94;49.96;70.69;;
74496;Laerm;62979;55.720;37.606;2022-09-13T07:23:30;64.43;61.30;74.27;;
74496;Laerm;62979;55.720;37.606;2022-09-13T07:25:57;63.21;60.61;73.53;;
74496;Laerm;62979;55.720;37.606;2022-09-13T07:28:31;63.54;56.58;72.85;;
74496;Laerm;62979;55.720;37.606;2022-09-13T07:31:07;68.26;62.97;75.21;;
74496;Laerm;62979;55.720;37.606;2022-09-13T07:33:35;68.54;63.08;73.93;;
74496;Laerm;62979;55.720;37.606;2022-09-13T07:36:03;67.64;62.90;73.69;;
74496;Laerm;62979;55.720;37.606;2022-09-13T07:38:33;67.85;62.76;78.01;;
74496;Laerm;62979;55.720;37.606;2022-09-13T07:41:01;62.98;56.39;75.41;;
74496;Laerm;62979;55.720;37.606;2022-09-13T07:43:31;66.48;57.74;74.15;;
74496;Laerm;62979;55.720;37.606;2022-09-13T07:46:01;66.36;61.55;71.55;;
74496;Laerm;62979;55.720;37.606;2022-09-13T07:48:33;65.61;61.38;69.44;;
74496;Laerm;62979;55.720;37.606;2022-09-13T07:51:04;66.08;61.37;76.93;;
74496;Laerm;62979;55.720;37.606;2022-09-13T07:53:33;66.30;61.62;84.00;;
74496;Laerm;62979;55.720;37.606;2022-09-13T07:56:02;65.73;61.19;69.43;;
74496;Laerm;62979;55.720;37.606;2022-09-13T07:58:31;65.91;61.04;70.16;;
74496;Laerm;62979;55.720;37.606;2022-09-13T08:01:04;65.91;61.03;70.09;;
74496;Laerm;62979;55.720;37.606;2022-09-13T08:03:34;65.67;59.58;73.22;;
74496;Laerm;62979;55.720;37.606;2022-09-13T08:06:03;64.97;59.59;70.03;;
74496;Laerm;62979;55.720;37.606;2022-09-13T08:08:32;67.91;63.69;72.34;;
74496;Laerm;62979;55.720;37.606;2022-09-13T08:11:02;66.43;60.57;72.14;;
74496;Laerm;62979;55.720;37.606;2022-09-13T08:13:30;65.50;60.65;70.08;;
74496;Laerm;62979;55.720;37.606;2022-09-13T08:16:01;61.62;51.50;74.20;;
74496;Laerm;62979;55.720;37.606;2022-09-13T08:18:29;60.59;55.22;74.77;;
74496;Laerm;62979;55.720;37.606;2022-09-13T08:20:59;56.97;50.40;79.82;;
74496;Laerm;62979;55.720;37.606;2022-09-13T08:23:27;57.63;50.63;63.29;;
74496;Laerm;62979;55.720;37.606;2022-09-13T08:26:00;56.39;49.90;73.27;;
74496;Laerm;62979;55.720;37.606;2022-09-13T08:28:29;58.39;51.32;75.52;;
74496;Laerm;62979;55.720;37.606;2022-09-13T08:31:03;60.11;50.82;79.53;;
74496;Laerm;62979;55.720;37.606;2022-09-13T08:33:31;55.24;48.63;63.78;;
74496;Laerm;62979;55.720;37.606;2022-09-13T08:36:00;55.84;49.06;68.35;;
74496;Laerm;62979;55.720;37.606;2022-09-13T08:38:28;55.98;49.16;65.36;;
74496;Laerm;62979;55.720;37.606;2022-09-13T08:40:59;65.44;56.87;70.49;;
74496;Laerm;62979;55.720;37.606;2022-09-13T08:43:42;59.32;48.37;69.40;;
74496;Laerm;62979;55.720;37.606;2022-09-13T08:46:26;57.46;49.69;71.82;;
74496;Laerm;62979;55.720;37.606;2022-09-13T08:49:00;55.12;47.23;65.74;;
74496;Laerm;62979;55.720;37.606;2022-09-13T08:51:35;56.27;46.64;77.07;;
74496;Laerm;62979;55.720;37.606;2022-09-13T08:54:04;55.99;47.46;63.74;;
74496;Laerm;62979;55.720;37.606;2022-09-13T08:56:41;58.25;49.28;74.76;;
74496;Laerm;62979;55.720;37.606;2022-09-13T08:59:40;55.56;48.21;67.82;;
74496;Laerm;62979;55.720;37.606;2022-09-13T09:02:46;60.17;47.75;67.16;;
74496;Laerm;62979;55.720;37.606;2022-09-13T09:05:18;61.90;50.34;71.09;;
74496;Laerm;62979;55.720;37.606;2022-09-13T09:07:52;54.12;46.28;63.91;;
74496;Laerm;62979;55.720;37.606;2022-09-13T09:10:27;55.03;46.57;66.58;;
74496;Laerm;62979;55.720;37.606;2022-09-13T09:12:58;61.47;49.52;76.67;;
74496;Laerm;62979;55.720;37.606;2022-09-13T09:15:32;57.62;47.93;77.84;;
74496;Laerm;62979;55.720;37.606;2022-09-13T09:18:08;56.14;47.73;71.12;;
74496;Laerm;62979;55.720;37.606;2022-09-13T09:20:42;54.81;47.15;61.49;;
74496;Laerm;62979;55.720;37.606;2022-09-13T09:23:17;58.39;48.46;81.31;;
74496;Laerm;62979;55.720;37.606;2022-09-13T09:25:45;56.18;49.71;67.57;;
74496;Laerm;62979;55.720;37.606;2022-09-13T09:28:15;61.71;49.55;77.38;;
74496;Laerm;62979;55.720;37.606;2022-09-13T09:30:57;55.58;47.11;67.30;;
74496;Laerm;62979;55.720;37.606;2022-09-13T09:33:48;57.87;49.78;69.28;;
74496;Laerm;62979;55.720;37.606;2022-09-13T09:36:29;57.05;47.11;67.33;;
74496;Laerm;62979;55.720;37.606;2022-09-13T09:38:59;54.79;47.29;65.62;;
74496;Laerm;62979;55.720;37.606;2022-09-13T09:41:29;55.85;44.73;72.13;;
74496;Laerm;62979;55.720;37.606;2022-09-13T09:44:08;56.99;48.75;68.87;;
74496;Laerm;62979;55.720;37.606;2022-09-13T09:46:42;53.82;46.61;60.20;;
74496;Laerm;62979;55.720;37.606;2022-09-13T09:49:17;55.50;47.69;63.36;;
74496;Laerm;62979;55.720;37.606;2022-09-13T09:52:06;62.55;45.61;81.96;;
74496;Laerm;62979;55.720;37.606;2022-09-13T09:54:37;55.81;46.80;70.45;;
74496;Laerm;62979;55.720;37.606;2022-09-13T09:57:07;55.32;45.96;72.73;;
74496;Laerm;62979;55.720;37.606;2022-09-13T09:59:34;58.43;50.26;67.37;;
74496;Laerm;62979;55.720;37.606;2022-09-13T10:02:12;63.04;55.08;69.18;;
74496;Laerm;62979;55.720;37.606;2022-09-13T10:04:40;62.95;60.08;67.22;;
74496;Laerm;62979;55.720;37.606;2022-09-13T10:07:25;62.45;59.54;72.18;;
74496;Laerm;62979;55.720;37.606;2022-09-13T10:09:58;60.16;52.69;69.32;;
74496;Laerm;62979;55.720;37.606;2022-09-13T10:12:34;62.23;54.88;76.45;;
74496;Laerm;62979;55.720;37.606;2022-09-13T10:15:13;68.42;63.78;72.30;;
74496;Laerm;62979;55.720;37.606;2022-09-13T10:17:42;67.51;63.18;71.45;;
74496;Laerm;62979;55.720;37.606;2022-09-13T10:20:20;66.47;61.55;70.12;;
74496;Laerm;62979;55.720;37.606;2022-09-13T10:23:14;66.58;62.74;70.66;;
74496;Laerm;62979;55.720;37.606;2022-09-13T10:25:55;66.14;62.30;71.01;;
74496;Laerm;62979;55.720;37.606;2022-09-13T10:28:25;65.95;61.79;70.41;;
74496;Laerm;62979;55.720;37.606;2022-09-13T10:30:57;66.06;61.68;70.17;;
74496;Laerm;62979;55.720;37.606;2022-09-13T10:33:30;64.23;52.59;68.64;;
74496;Laerm;62979;55.720;37.606;2022-09-13T10:36:02;64.81;61.26;68.15;;
74496;Laerm;62979;55.720;37.606;2022-09-13T10:38:35;67.39;62.53;73.60;;
74496;Laerm;62979;55.720;37.606;2022-09-13T10:41:08;65.38;61.68;70.08;;
74496;Laerm;62979;55.720;37.606;2022-09-13T10:43:37;64.78;61.77;77.58;;
74496;Laerm;62979;55.720;37.606;2022-09-13T10:46:09;65.19;56.09;80.53;;
74496;Laerm;62979;55.720;37.606;2022-09-13T10:48:48;66.22;62.73;69.64;;
74496;Laerm;62979;55.720;37.606;2022-09-13T10:51:32;66.08;62.15;74.04;;
74496;Laerm;62979;55.720;37.606;2022-09-13T10:54:19;67.34;63.27;77.02;;
74496;Laerm;62979;55.720;37.606;2022-09-13T10:56:50;66.16;61.22;71.52;;
74496;Laerm;62979;55.720;37.606;2022-09-13T10:59:23;66.16;62.98;70.62;;
74496;Laerm;62979;55.720;37.606;2022-09-13T11:02:24;65.76;61.97;70.72;;
74496;Laerm;62979;55.720;37.606;2022-09-13T11:05:10;66.05;61.08;71.94;;
74496;Laerm;62979;55.720;37.606;2022-09-13T11:08:25;65.27;51.92;71.86;;
74496;Laerm;62979;55.720;37.606;2022-09-13T11:11:10;65.97;60.64;78.54;;
74496;Laerm;62979;55.720;37.606;2022-09-13T11:14:00;65.38;57.38;73.88;;
74496;Laerm;62979;55.720;37.606;2022-09-13T11:16:50;61.97;55.39;71.00;;
74496;Laerm;62979;55.720;37.606;2022-09-13T11:19:48;62.02;55.76;76.50;;
74496;Laerm;62979;55.720;37.606;2022-09-13T11:22:37;59.90;49.23;81.14;;
74496;Laerm;62979;55.720;37.606;2022-09-13T11:25:28;57.99;48.70;65.37;;
74496;Laerm;62979;55.720;37.606;2022-09-13T11:28:10;55.63;48.34;63.32;;
74496;Laerm;62979;55.720;37.606;2022-09-13T11:31:03;58.66;49.39;78.48;;
74496;Laerm;62979;55.720;37.606;2022-09-13T11:33:49;56.25;48.58;68.85;;
74496;Laerm;62979;55.720;37.606;2022-09-13T11:36:44;65.49;49.22;87.26;;
74496;Laerm;62979;55.720;37.606;2022-09-13T11:39:30;56.23;48.56;75.03;;
74496;Laerm;62979;55.720;37.606;2022-09-13T11:42:23;57.63;48.80;69.89;;
74496;Laerm;62979;55.720;37.606;2022-09-13T11:45:20;54.71;48.30;63.99;;
74496;Laerm;62979;55.720;37.606;2022-09-13T11:48:09;57.14;47.59;66.60;;
74496;Laerm;62979;55.720;37.606;2022-09-13T11:50:51;54.31;48.23;63.02;;
74496;Laerm;62979;55.720;37.606;2022-09-13T11:53:56;56.20;48.14;73.41;;
74496;Laerm;62979;55.720;37.606;2022-09-13T11:56:31;55.66;49.06;63.43;;
74496;Laerm;62979;55.720;37.606;2022-09-13T11:59:13;56.19;47.79;78.65;;
74496;Laerm;62979;55.720;37.606;2022-09-13T12:01:48;56.41;49.44;69.13;;
74496;Laerm;62979;55.720;37.606;2022-09-13T12:04:24;56.53;48.97;62.18;;
74496;Laerm;62979;55.720;37.606;2022-09-13T12:06:58;59.71;48.22;86.07;;
74496;Laerm;62979;55.720;37.606;2022-09-13T12:09:31;58.16;47.49;77.90;;
74496;Laerm;62979;55.720;37.606;2022-09-13T12:12:05;56.69;50.13;67.65;;
74496;Laerm;62979;55.720;37.606;2022-09-13T12:14:44;55.36;48.51;64.81;;
74496;Laerm;62979;55.720;37.606;2022-09-13T12:17:25;56.63;48.85;75.16;;
74496;Laerm;62979;55.720;37.606;2022-09-13T12:19:59;56.56;48.93;77.39;;
74496;Laerm;62979;55.720;37.606;2022-09-13T12:22:33;55.51;47.65;64.67;;
74496;Laerm;62979;55.720;37.606;2022-09-13T12:25:14;57.52;49.91;68.68;;
74496;Laerm;62979;55.720;37.606;2022-09-13T12:27:54;57.72;50.22;74.36;;
74496;Laerm;62979;55.720;37.606;2022-09-13T12:30:27;58.16;50.34;68.29;;
74496;Laerm;62979;55.720;37.606;2022-09-13T12:33:00;56.29;49.12;63.86;;
74496;Laerm;62979;55.720;37.606;2022-09-13T12:35:32;56.12;49.68;63.66;;
74496;Laerm;62979;55.720;37.606;2022-09-13T12:38:24;56.26;49.64;72.73;;
74496;Laerm;62979;55.720;37.606;2022-09-13T12:41:15;56.43;48.02;66.13;;
74496;Laerm;62979;55.720;37.606;2022-09-13T12:44:41;54.89;49.01;69.32;;
74496;Laerm;62979;55.720;37.606;2022-09-13T12:50:44;55.69;49.17;65.62;;
74496;Laerm;62979;55.720;37.606;2022-09-13T12:56:40;56.82;48.28;70.37;;
74496;Laerm;62979;55.720;37.606;2022-09-13T12:59:27;57.10;48.07;73.54;;
74496;Laerm;62979;55.720;37.606;2022-09-13T13:02:18;54.44;46.95;62.94;;
74496;Laerm;62979;55.720;37.606;2022-09-13T13:04:51;56.48;48.46;63.67;;
74496;Laerm;62979;55.720;37.606;2022-09-13T13:07:23;57.05;48.89;66.50;;
74496;Laerm;62979;55.720;37.606;2022-09-13T13:09:54;53.91;46.99;63.36;;
74496;Laerm;62979;55.720;37.606;2022-09-13T13:12:30;57.07;47.17;65.75;;
74496;Laerm;62979;55.720;37.606;2022-09-13T13:15:00;57.59;50.29;76.55;;
74496;Laerm;62979;55.720;37.606;2022-09-13T13:17:44;58.81;50.69;73.98;;
74496;Laerm;62979;55.720;37.606;2022-09-13T13:20:45;58.12;50.32;69.78;;
74496;Laerm;62979;55.720;37.606;2022-09-13T13:23:22;57.06;50.95;64.11;;
74496;Laerm;62979;55.720;37.606;2022-09-13T13:26:00;62.51;50.90;80.57;;
74496;Laerm;62979;55.720;37.606;2022-09-13T13:29:14;56.72;49.74;72.80;;
74496;Laerm;62979;55.720;37.606;2022-09-13T13:32:04;62.61;52.41;75.24;;
74496;Laerm;62979;55.720;37.606;2022-09-13T13:34:40;60.31;50.60;75.19;;
74496;Laerm;62979;55.720;37.606;2022-09-13T13:37:35;54.78;47.99;64.14;;
74496;Laerm;62979;55.720;37.606;2022-09-13T13:40:25;56.37;49.68;70.01;;
74496;Laerm;62979;55.720;37.606;2022-09-13T13:43:28;56.57;48.80;73.04;;
74496;Laerm;62979;55.720;37.606;2022-09-13T13:46:28;63.53;52.36;75.14;;
74496;Laerm;62979;55.720;37.606;2022-09-13T13:49:40;58.66;47.40;67.96;;
74496;Laerm;62979;55.720;37.606;2022-09-13T13:52:35;61.50;50.66;72.21;;
74496;Laerm;62979;55.720;37.606;2022-09-13T13:55:40;55.10;47.84;64.25;;
74496;Laerm;62979;55.720;37.606;2022-09-13T13:58:44;56.56;47.54;70.94;;
74496;Laerm;62979;55.720;37.606;2022-09-13T14:01:20;55.59;47.76;67.34;;
74496;Laerm;62979;55.720;37.606;2022-09-13T14:04:04;55.66;47.35;64.66;;
74496;Laerm;62979;55.720;37.606;2022-09-13T14:06:48;57.27;49.11;68.48;;
74496;Laerm;62979;55.720;37.606;2022-09-13T14:09:34;56.28;50.71;62.45;;
74496;Laerm;62979;55.720;37.606;2022-09-13T14:12:24;55.42;47.21;63.34;;
74496;Laerm;62979;55.720;37.606;2022-09-13T14:15:24;54.53;45.25;66.33;;
74496;Laerm;62979;55.720;37.606;2022-09-13T14:18:43;55.50;47.88;71.96;;
74496;Laerm;62979;55.720;37.606;2022-09-13T14:21:21;55.90;48.01;64.73;;
74496;Laerm;62979;55.720;37.606;2022-09-13T14:23:50;58.70;50.34;70.83;;
74496;Laerm;62979;55.720;37.606;2022-09-13T14:26:18;57.24;50.04;63.30;;